sensor_id;sensor_type;location;lat;lon;timestamp;P1;durP1;ratioP1;P2;durP2;ratioP2
31043;SDS011;17710;52.520;13.352;2022-10-16T00:02:17;2.58;;;1.30;;
31043;SDS011;17710;52.520;13.352;2022-10-16T00:04:44;2.28;;;1.10;;
31043;SDS011;17710;52.520;13.352;2022-10-16T00:07:11;1.60;;;1.30;;
31043;SDS011;17710;52.520;13.352;2022-10-16T00:09:37;1.05;;;1.00;;
31043;SDS011;17710;52.520;13.352;2022-10-16T00:12:04;1.33;;;1.02;;
31043;SDS011;17710;52.520;13.352;2022-10-16T00:14:33;1.58;;;1.15;;
31043;SDS011;17710;52.520;13.352;2022-10-16T00:16:59;1.75;;;1.38;;
31043;SDS011;17710;52.520;13.352;2022-10-16T00:19:26;4.45;;;0.90;;
31043;SDS011;17710;52.520;13.352;2022-10-16T00:21:52;1.77;;;1.25;;
31043;SDS011;17710;52.520;13.352;2022-10-16T00:24:18;1.45;;;1.10;;
31043;SDS011;17710;52.520;13.352;2022-10-16T00:26:45;2.58;;;1.20;;
31043;SDS011;17710;52.520;13.352;2022-10-16T00:29:15;2.70;;;1.15;;
31043;SDS011;17710;52.520;13.352;2022-10-16T00:31:43;3.70;;;1.10;;
31043;SDS011;17710;52.520;13.352;2022-10-16T00:34:09;1.25;;;1.10;;
31043;SDS011;17710;52.520;13.352;2022-10-16T00:36:35;1.83;;;1.25;;
31043;SDS011;17710;52.520;13.352;2022-10-16T00:39:02;5.55;;;1.10;;
31043;SDS011;17710;52.520;13.352;2022-10-16T00:41:29;1.55;;;1.08;;
31043;SDS011;17710;52.520;13.352;2022-10-16T00:43:56;1.20;;;1.10;;
31043;SDS011;17710;52.520;13.352;2022-10-16T00:46:24;4.53;;;1.40;;
31043;SDS011;17710;52.520;13.352;2022-10-16T00:48:54;2.92;;;1.38;;
31043;SDS011;17710;52.520;13.352;2022-10-16T00:51:28;3.95;;;0.90;;
31043;SDS011;17710;52.520;13.352;2022-10-16T00:53:58;1.48;;;1.20;;
31043;SDS011;17710;52.520;13.352;2022-10-16T00:56:25;2.88;;;1.13;;
31043;SDS011;17710;52.520;13.352;2022-10-16T00:58:52;1.52;;;1.25;;
31043;SDS011;17710;52.520;13.352;2022-10-16T01:01:19;2.90;;;1.20;;
31043;SDS011;17710;52.520;13.352;2022-10-16T01:03:45;1.60;;;0.90;;
31043;SDS011;17710;52.520;13.352;2022-10-16T01:06:18;3.28;;;1.10;;
31043;SDS011;17710;52.520;13.352;2022-10-16T01:08:51;1.23;;;1.00;;
31043;SDS011;17710;52.520;13.352;2022-10-16T01:11:27;1.58;;;1.10;;
31043;SDS011;17710;52.520;13.352;2022-10-16T01:14:00;2.42;;;1.20;;
31043;SDS011;17710;52.520;13.352;2022-10-16T01:16:33;1.90;;;1.35;;
31043;SDS011;17710;52.520;13.352;2022-10-16T01:19:15;2.92;;;0.90;;
31043;SDS011;17710;52.520;13.352;2022-10-16T01:21:47;1.30;;;1.20;;
31043;SDS011;17710;52.520;13.352;2022-10-16T01:24:18;3.30;;;1.00;;
31043;SDS011;17710;52.520;13.352;2022-10-16T01:27:08;2.03;;;0.90;;
31043;SDS011;17710;52.520;13.352;2022-10-16T01:29:37;1.58;;;1.00;;
31043;SDS011;17710;52.520;13.352;2022-10-16T01:32:10;2.03;;;0.90;;
31043;SDS011;17710;52.520;13.352;2022-10-16T01:34:44;2.03;;;1.30;;
31043;SDS011;17710;52.520;13.352;2022-10-16T01:37:21;2.33;;;1.00;;
31043;SDS011;17710;52.520;13.352;2022-10-16T01:39:55;0.90;;;0.85;;
31043;SDS011;17710;52.520;13.352;2022-10-16T01:42:27;1.27;;;1.00;;
31043;SDS011;17710;52.520;13.352;2022-10-16T01:45:00;6.15;;;1.10;;
31043;SDS011;17710;52.520;13.352;2022-10-16T01:47:27;1.58;;;0.93;;
31043;SDS011;17710;52.520;13.352;2022-10-16T01:49:57;2.53;;;0.80;;
31043;SDS011;17710;52.520;13.352;2022-10-16T01:52:26;2.15;;;1.00;;
31043;SDS011;17710;52.520;13.352;2022-10-16T01:54:55;1.00;;;0.90;;
31043;SDS011;17710;52.520;13.352;2022-10-16T01:57:23;1.67;;;1.27;;
31043;SDS011;17710;52.520;13.352;2022-10-16T01:59:54;1.00;;;0.88;;
31043;SDS011;17710;52.520;13.352;2022-10-16T02:02:24;1.30;;;1.20;;
31043;SDS011;17710;52.520;13.352;2022-10-16T02:04:55;2.35;;;1.27;;
31043;SDS011;17710;52.520;13.352;2022-10-16T02:07:24;2.45;;;1.10;;
31043;SDS011;17710;52.520;13.352;2022-10-16T02:09:51;1.75;;;1.00;;
31043;SDS011;17710;52.520;13.352;2022-10-16T02:12:19;4.57;;;0.90;;
31043;SDS011;17710;52.520;13.352;2022-10-16T02:14:50;0.90;;;0.90;;
31043;SDS011;17710;52.520;13.352;2022-10-16T02:17:18;0.90;;;0.90;;
31043;SDS011;17710;52.520;13.352;2022-10-16T02:19:45;3.00;;;1.00;;
31043;SDS011;17710;52.520;13.352;2022-10-16T02:22:15;0.82;;;0.82;;
31043;SDS011;17710;52.520;13.352;2022-10-16T02:24:47;1.60;;;0.90;;
31043;SDS011;17710;52.520;13.352;2022-10-16T02:27:19;4.88;;;0.90;;
31043;SDS011;17710;52.520;13.352;2022-10-16T02:29:52;1.30;;;1.00;;
31043;SDS011;17710;52.520;13.352;2022-10-16T02:32:27;1.02;;;0.82;;
31043;SDS011;17710;52.520;13.352;2022-10-16T02:34:56;0.98;;;0.90;;
31043;SDS011;17710;52.520;13.352;2022-10-16T02:37:25;1.67;;;1.20;;
31043;SDS011;17710;52.520;13.352;2022-10-16T02:39:52;2.55;;;0.98;;
31043;SDS011;17710;52.520;13.352;2022-10-16T02:42:20;3.38;;;1.40;;
31043;SDS011;17710;52.520;13.352;2022-10-16T02:44:46;2.45;;;0.90;;
31043;SDS011;17710;52.520;13.352;2022-10-16T02:47:13;1.35;;;0.90;;
31043;SDS011;17710;52.520;13.352;2022-10-16T02:49:40;1.10;;;1.00;;
31043;SDS011;17710;52.520;13.352;2022-10-16T02:52:07;0.90;;;0.80;;
31043;SDS011;17710;52.520;13.352;2022-10-16T02:54:33;3.30;;;1.15;;
31043;SDS011;17710;52.520;13.352;2022-10-16T02:57:00;1.02;;;1.00;;
31043;SDS011;17710;52.520;13.352;2022-10-16T02:59:26;1.17;;;1.00;;
31043;SDS011;17710;52.520;13.352;2022-10-16T03:01:53;1.75;;;1.00;;
31043;SDS011;17710;52.520;13.352;2022-10-16T03:04:19;1.25;;;1.00;;
31043;SDS011;17710;52.520;13.352;2022-10-16T03:06:47;1.50;;;0.90;;
31043;SDS011;17710;52.520;13.352;2022-10-16T03:09:14;2.55;;;1.30;;
31043;SDS011;17710;52.520;13.352;2022-10-16T03:11:40;2.95;;;0.95;;
31043;SDS011;17710;52.520;13.352;2022-10-16T03:14:07;1.02;;;0.90;;
31043;SDS011;17710;52.520;13.352;2022-10-16T03:16:33;1.88;;;1.13;;
31043;SDS011;17710;52.520;13.352;2022-10-16T03:19:00;2.58;;;1.23;;
31043;SDS011;17710;52.520;13.352;2022-10-16T03:21:27;1.90;;;1.20;;
31043;SDS011;17710;52.520;13.352;2022-10-16T03:23:55;1.25;;;1.15;;
31043;SDS011;17710;52.520;13.352;2022-10-16T03:26:21;4.97;;;1.40;;
31043;SDS011;17710;52.520;13.352;2022-10-16T03:28:48;2.00;;;1.02;;
31043;SDS011;17710;52.520;13.352;2022-10-16T03:31:14;3.33;;;0.90;;
31043;SDS011;17710;52.520;13.352;2022-10-16T03:33:41;1.90;;;1.40;;
31043;SDS011;17710;52.520;13.352;2022-10-16T03:36:07;1.73;;;1.08;;
31043;SDS011;17710;52.520;13.352;2022-10-16T03:38:34;1.67;;;1.00;;
31043;SDS011;17710;52.520;13.352;2022-10-16T03:41:01;2.75;;;0.88;;
31043;SDS011;17710;52.520;13.352;2022-10-16T03:43:28;1.40;;;1.00;;
31043;SDS011;17710;52.520;13.352;2022-10-16T03:45:55;1.35;;;1.10;;
31043;SDS011;17710;52.520;13.352;2022-10-16T03:48:21;1.20;;;0.95;;
31043;SDS011;17710;52.520;13.352;2022-10-16T03:50:48;2.30;;;1.08;;
31043;SDS011;17710;52.520;13.352;2022-10-16T03:53:15;1.58;;;1.00;;
31043;SDS011;17710;52.520;13.352;2022-10-16T03:55:42;1.50;;;1.10;;
31043;SDS011;17710;52.520;13.352;2022-10-16T03:58:10;1.55;;;1.25;;
31043;SDS011;17710;52.520;13.352;2022-10-16T04:00:39;2.72;;;1.23;;
31043;SDS011;17710;52.520;13.352;2022-10-16T04:03:06;1.63;;;1.15;;
31043;SDS011;17710;52.520;13.352;2022-10-16T04:05:32;1.38;;;1.17;;
31043;SDS011;17710;52.520;13.352;2022-10-16T04:07:59;1.83;;;0.98;;
31043;SDS011;17710;52.520;13.352;2022-10-16T04:10:25;1.75;;;1.10;;
31043;SDS011;17710;52.520;13.352;2022-10-16T04:12:52;2.20;;;1.30;;
31043;SDS011;17710;52.520;13.352;2022-10-16T04:15:22;3.40;;;1.13;;
31043;SDS011;17710;52.520;13.352;2022-10-16T04:17:48;1.92;;;1.23;;
31043;SDS011;17710;52.520;13.352;2022-10-16T04:20:14;1.73;;;1.08;;
31043;SDS011;17710;52.520;13.352;2022-10-16T04:22:41;1.88;;;1.10;;
31043;SDS011;17710;52.520;13.352;2022-10-16T04:25:10;1.20;;;1.10;;
31043;SDS011;17710;52.520;13.352;2022-10-16T04:27:37;2.05;;;1.42;;
31043;SDS011;17710;52.520;13.352;2022-10-16T04:30:04;1.10;;;1.00;;
31043;SDS011;17710;52.520;13.352;2022-10-16T04:32:33;1.98;;;1.10;;
31043;SDS011;17710;52.520;13.352;2022-10-16T04:35:00;1.13;;;1.02;;
31043;SDS011;17710;52.520;13.352;2022-10-16T04:37:26;1.27;;;1.17;;
31043;SDS011;17710;52.520;13.352;2022-10-16T04:39:53;5.55;;;1.40;;
31043;SDS011;17710;52.520;13.352;2022-10-16T04:42:19;2.25;;;1.05;;
31043;SDS011;17710;52.520;13.352;2022-10-16T04:44:46;1.60;;;1.00;;
31043;SDS011;17710;52.520;13.352;2022-10-16T04:47:13;2.33;;;1.40;;
31043;SDS011;17710;52.520;13.352;2022-10-16T04:49:41;2.83;;;1.25;;
31043;SDS011;17710;52.520;13.352;2022-10-16T04:52:07;2.92;;;1.20;;
31043;SDS011;17710;52.520;13.352;2022-10-16T04:54:34;4.88;;;1.20;;
31043;SDS011;17710;52.520;13.352;2022-10-16T04:57:00;2.35;;;1.58;;
31043;SDS011;17710;52.520;13.352;2022-10-16T04:59:27;1.30;;;1.20;;
31043;SDS011;17710;52.520;13.352;2022-10-16T05:01:53;1.85;;;1.33;;
31043;SDS011;17710;52.520;13.352;2022-10-16T05:04:20;1.27;;;1.15;;
31043;SDS011;17710;52.520;13.352;2022-10-16T05:06:48;6.10;;;1.25;;
31043;SDS011;17710;52.520;13.352;2022-10-16T05:09:15;1.50;;;1.08;;
31043;SDS011;17710;52.520;13.352;2022-10-16T05:11:41;1.67;;;1.20;;
31043;SDS011;17710;52.520;13.352;2022-10-16T05:14:07;1.40;;;1.30;;
31043;SDS011;17710;52.520;13.352;2022-10-16T05:16:34;1.63;;;1.52;;
31043;SDS011;17710;52.520;13.352;2022-10-16T05:19:00;2.78;;;1.30;;
31043;SDS011;17710;52.520;13.352;2022-10-16T05:21:27;1.98;;;1.30;;
31043;SDS011;17710;52.520;13.352;2022-10-16T05:23:54;3.30;;;1.20;;
31043;SDS011;17710;52.520;13.352;2022-10-16T05:26:21;1.83;;;1.50;;
31043;SDS011;17710;52.520;13.352;2022-10-16T05:28:49;1.60;;;1.23;;
31043;SDS011;17710;52.520;13.352;2022-10-16T05:31:15;1.73;;;1.40;;
31043;SDS011;17710;52.520;13.352;2022-10-16T05:33:45;2.17;;;1.50;;
31043;SDS011;17710;52.520;13.352;2022-10-16T05:36:11;1.88;;;1.15;;
31043;SDS011;17710;52.520;13.352;2022-10-16T05:38:38;2.55;;;2.00;;
31043;SDS011;17710;52.520;13.352;2022-10-16T05:41:06;4.47;;;1.42;;
31043;SDS011;17710;52.520;13.352;2022-10-16T05:43:33;1.85;;;1.30;;
31043;SDS011;17710;52.520;13.352;2022-10-16T05:46:02;2.03;;;1.30;;
31043;SDS011;17710;52.520;13.352;2022-10-16T05:48:30;3.45;;;1.17;;
31043;SDS011;17710;52.520;13.352;2022-10-16T05:50:58;2.05;;;1.48;;
31043;SDS011;17710;52.520;13.352;2022-10-16T05:53:26;1.83;;;1.50;;
31043;SDS011;17710;52.520;13.352;2022-10-16T05:55:54;6.03;;;1.63;;
31043;SDS011;17710;52.520;13.352;2022-10-16T05:58:22;1.40;;;1.30;;
31043;SDS011;17710;52.520;13.352;2022-10-16T06:00:53;2.15;;;1.27;;
31043;SDS011;17710;52.520;13.352;2022-10-16T06:03:21;2.95;;;1.27;;
31043;SDS011;17710;52.520;13.352;2022-10-16T06:05:48;5.68;;;1.60;;
31043;SDS011;17710;52.520;13.352;2022-10-16T06:08:18;4.30;;;1.42;;
31043;SDS011;17710;52.520;13.352;2022-10-16T06:10:46;2.60;;;1.50;;
31043;SDS011;17710;52.520;13.352;2022-10-16T06:13:14;5.00;;;1.70;;
31043;SDS011;17710;52.520;13.352;2022-10-16T06:15:42;2.30;;;1.50;;
31043;SDS011;17710;52.520;13.352;2022-10-16T06:18:09;2.22;;;1.50;;
31043;SDS011;17710;52.520;13.352;2022-10-16T06:20:36;1.48;;;1.30;;
31043;SDS011;17710;52.520;13.352;2022-10-16T06:23:02;3.90;;;1.52;;
31043;SDS011;17710;52.520;13.352;2022-10-16T06:25:29;2.25;;;1.45;;
31043;SDS011;17710;52.520;13.352;2022-10-16T06:27:56;3.30;;;1.52;;
31043;SDS011;17710;52.520;13.352;2022-10-16T06:30:23;6.20;;;1.50;;
31043;SDS011;17710;52.520;13.352;2022-10-16T06:32:51;2.70;;;1.30;;
31043;SDS011;17710;52.520;13.352;2022-10-16T06:35:17;1.80;;;1.70;;
31043;SDS011;17710;52.520;13.352;2022-10-16T06:37:43;1.65;;;1.20;;
31043;SDS011;17710;52.520;13.352;2022-10-16T06:40:10;1.92;;;1.58;;
31043;SDS011;17710;52.520;13.352;2022-10-16T06:42:36;1.45;;;1.30;;
31043;SDS011;17710;52.520;13.352;2022-10-16T06:45:03;2.45;;;1.55;;
31043;SDS011;17710;52.520;13.352;2022-10-16T06:47:30;2.60;;;1.40;;
31043;SDS011;17710;52.520;13.352;2022-10-16T06:49:58;2.95;;;1.20;;
31043;SDS011;17710;52.520;13.352;2022-10-16T06:52:24;6.63;;;1.50;;
31043;SDS011;17710;52.520;13.352;2022-10-16T06:54:53;3.03;;;1.70;;
31043;SDS011;17710;52.520;13.352;2022-10-16T06:57:20;2.13;;;1.38;;
31043;SDS011;17710;52.520;13.352;2022-10-16T06:59:46;4.80;;;1.20;;
31043;SDS011;17710;52.520;13.352;2022-10-16T07:02:13;4.38;;;1.70;;
31043;SDS011;17710;52.520;13.352;2022-10-16T07:04:40;2.70;;;1.40;;
31043;SDS011;17710;52.520;13.352;2022-10-16T07:07:07;2.58;;;1.30;;
31043;SDS011;17710;52.520;13.352;2022-10-16T07:09:34;3.45;;;1.35;;
31043;SDS011;17710;52.520;13.352;2022-10-16T07:12:00;1.20;;;1.10;;
31043;SDS011;17710;52.520;13.352;2022-10-16T07:14:27;2.88;;;1.17;;
31043;SDS011;17710;52.520;13.352;2022-10-16T07:16:55;1.42;;;1.30;;
31043;SDS011;17710;52.520;13.352;2022-10-16T07:19:21;1.40;;;1.00;;
31043;SDS011;17710;52.520;13.352;2022-10-16T07:21:48;1.48;;;1.08;;
31043;SDS011;17710;52.520;13.352;2022-10-16T07:24:16;1.83;;;1.05;;
31043;SDS011;17710;52.520;13.352;2022-10-16T07:26:43;1.45;;;1.02;;
31043;SDS011;17710;52.520;13.352;2022-10-16T07:29:12;2.42;;;1.10;;
31043;SDS011;17710;52.520;13.352;2022-10-16T07:31:39;5.43;;;1.13;;
31043;SDS011;17710;52.520;13.352;2022-10-16T07:34:06;1.42;;;1.00;;
31043;SDS011;17710;52.520;13.352;2022-10-16T07:36:32;1.17;;;1.00;;
31043;SDS011;17710;52.520;13.352;2022-10-16T07:38:59;1.25;;;1.10;;
31043;SDS011;17710;52.520;13.352;2022-10-16T07:41:27;1.23;;;1.10;;
31043;SDS011;17710;52.520;13.352;2022-10-16T07:43:54;1.88;;;0.98;;
31043;SDS011;17710;52.520;13.352;2022-10-16T07:46:22;4.68;;;1.05;;
31043;SDS011;17710;52.520;13.352;2022-10-16T07:48:49;1.40;;;1.20;;
31043;SDS011;17710;52.520;13.352;2022-10-16T07:51:17;1.38;;;1.00;;
31043;SDS011;17710;52.520;13.352;2022-10-16T07:53:45;1.52;;;0.80;;
31043;SDS011;17710;52.520;13.352;2022-10-16T07:56:11;1.80;;;0.90;;
31043;SDS011;17710;52.520;13.352;2022-10-16T07:58:41;0.90;;;0.90;;
31043;SDS011;17710;52.520;13.352;2022-10-16T08:01:09;2.92;;;0.93;;
31043;SDS011;17710;52.520;13.352;2022-10-16T08:03:38;3.33;;;1.35;;
31043;SDS011;17710;52.520;13.352;2022-10-16T08:06:07;4.50;;;0.90;;
31043;SDS011;17710;52.520;13.352;2022-10-16T08:08:34;3.13;;;1.10;;
31043;SDS011;17710;52.520;13.352;2022-10-16T08:11:00;2.08;;;1.05;;
31043;SDS011;17710;52.520;13.352;2022-10-16T08:13:28;2.47;;;0.95;;
31043;SDS011;17710;52.520;13.352;2022-10-16T08:15:57;0.73;;;0.73;;
31043;SDS011;17710;52.520;13.352;2022-10-16T08:18:23;1.63;;;1.00;;
31043;SDS011;17710;52.520;13.352;2022-10-16T08:20:54;2.67;;;0.90;;
31043;SDS011;17710;52.520;13.352;2022-10-16T08:23:22;2.88;;;0.93;;
31043;SDS011;17710;52.520;13.352;2022-10-16T08:25:50;1.92;;;1.17;;
31043;SDS011;17710;52.520;13.352;2022-10-16T08:28:17;3.35;;;1.35;;
31043;SDS011;17710;52.520;13.352;2022-10-16T08:30:44;4.30;;;1.30;;
31043;SDS011;17710;52.520;13.352;2022-10-16T08:33:12;1.95;;;1.00;;
31043;SDS011;17710;52.520;13.352;2022-10-16T08:35:38;2.80;;;0.90;;
31043;SDS011;17710;52.520;13.352;2022-10-16T08:38:05;1.02;;;1.00;;
31043;SDS011;17710;52.520;13.352;2022-10-16T08:40:34;0.95;;;0.88;;
31043;SDS011;17710;52.520;13.352;2022-10-16T08:43:09;1.00;;;0.95;;
31043;SDS011;17710;52.520;13.352;2022-10-16T08:45:50;5.03;;;1.23;;
31043;SDS011;17710;52.520;13.352;2022-10-16T08:48:31;0.93;;;0.93;;
31043;SDS011;17710;52.520;13.352;2022-10-16T08:51:02;3.15;;;1.15;;
31043;SDS011;17710;52.520;13.352;2022-10-16T08:53:31;4.57;;;1.85;;
31043;SDS011;17710;52.520;13.352;2022-10-16T08:56:06;0.77;;;0.77;;
31043;SDS011;17710;52.520;13.352;2022-10-16T08:58:33;0.82;;;0.82;;
31043;SDS011;17710;52.520;13.352;2022-10-16T09:01:00;3.35;;;1.77;;
31043;SDS011;17710;52.520;13.352;2022-10-16T09:03:37;1.13;;;0.85;;
31043;SDS011;17710;52.520;13.352;2022-10-16T09:06:22;1.27;;;0.90;;
31043;SDS011;17710;52.520;13.352;2022-10-16T09:11:45;1.73;;;0.80;;
31043;SDS011;17710;52.520;13.352;2022-10-16T09:14:25;2.60;;;0.75;;
31043;SDS011;17710;52.520;13.352;2022-10-16T09:17:06;2.20;;;0.80;;
31043;SDS011;17710;52.520;13.352;2022-10-16T09:19:48;3.05;;;0.77;;
31043;SDS011;17710;52.520;13.352;2022-10-16T09:22:20;1.42;;;0.95;;
31043;SDS011;17710;52.520;13.352;2022-10-16T09:24:51;1.88;;;0.63;;
31043;SDS011;17710;52.520;13.352;2022-10-16T09:27:17;1.40;;;0.55;;
31043;SDS011;17710;52.520;13.352;2022-10-16T09:29:44;1.00;;;0.77;;
31043;SDS011;17710;52.520;13.352;2022-10-16T09:32:11;6.97;;;0.77;;
31043;SDS011;17710;52.520;13.352;2022-10-16T09:34:41;2.35;;;0.90;;
31043;SDS011;17710;52.520;13.352;2022-10-16T09:37:11;4.00;;;0.90;;
31043;SDS011;17710;52.520;13.352;2022-10-16T09:39:44;1.42;;;0.65;;
31043;SDS011;17710;52.520;13.352;2022-10-16T09:42:11;2.88;;;0.70;;
31043;SDS011;17710;52.520;13.352;2022-10-16T09:44:46;2.38;;;0.60;;
31043;SDS011;17710;52.520;13.352;2022-10-16T09:47:16;0.82;;;0.73;;
31043;SDS011;17710;52.520;13.352;2022-10-16T09:49:51;3.83;;;0.77;;
31043;SDS011;17710;52.520;13.352;2022-10-16T09:52:20;1.25;;;0.70;;
31043;SDS011;17710;52.520;13.352;2022-10-16T09:54:48;2.05;;;0.60;;
31043;SDS011;17710;52.520;13.352;2022-10-16T09:57:16;0.90;;;0.70;;
31043;SDS011;17710;52.520;13.352;2022-10-16T09:59:45;5.03;;;0.90;;
31043;SDS011;17710;52.520;13.352;2022-10-16T10:02:13;1.30;;;1.00;;
31043;SDS011;17710;52.520;13.352;2022-10-16T10:04:43;0.55;;;0.50;;
31043;SDS011;17710;52.520;13.352;2022-10-16T10:07:17;1.63;;;0.70;;
31043;SDS011;17710;52.520;13.352;2022-10-16T10:09:47;1.00;;;0.60;;
31043;SDS011;17710;52.520;13.352;2022-10-16T10:12:16;1.10;;;0.70;;
31043;SDS011;17710;52.520;13.352;2022-10-16T10:14:45;3.22;;;0.70;;
31043;SDS011;17710;52.520;13.352;2022-10-16T10:17:15;1.40;;;0.60;;
31043;SDS011;17710;52.520;13.352;2022-10-16T10:19:46;1.38;;;0.55;;
31043;SDS011;17710;52.520;13.352;2022-10-16T10:22:25;1.17;;;0.60;;
31043;SDS011;17710;52.520;13.352;2022-10-16T10:25:00;3.20;;;0.85;;
31043;SDS011;17710;52.520;13.352;2022-10-16T10:27:39;1.85;;;0.60;;
31043;SDS011;17710;52.520;13.352;2022-10-16T10:30:18;3.33;;;0.60;;
31043;SDS011;17710;52.520;13.352;2022-10-16T10:32:51;1.00;;;0.57;;
31043;SDS011;17710;52.520;13.352;2022-10-16T10:35:43;1.33;;;0.50;;
31043;SDS011;17710;52.520;13.352;2022-10-16T10:38:20;2.63;;;0.50;;
31043;SDS011;17710;52.520;13.352;2022-10-16T10:41:00;0.85;;;0.50;;
31043;SDS011;17710;52.520;13.352;2022-10-16T10:43:50;1.30;;;0.80;;
31043;SDS011;17710;52.520;13.352;2022-10-16T10:46:29;2.13;;;0.60;;
31043;SDS011;17710;52.520;13.352;2022-10-16T10:49:02;6.80;;;0.77;;
31043;SDS011;17710;52.520;13.352;2022-10-16T10:51:40;4.13;;;0.52;;
31043;SDS011;17710;52.520;13.352;2022-10-16T10:54:22;1.73;;;0.50;;
31043;SDS011;17710;52.520;13.352;2022-10-16T10:57:08;0.75;;;0.52;;
31043;SDS011;17710;52.520;13.352;2022-10-16T10:59:49;0.73;;;0.57;;
31043;SDS011;17710;52.520;13.352;2022-10-16T11:02:31;2.05;;;0.45;;
31043;SDS011;17710;52.520;13.352;2022-10-16T11:05:19;1.65;;;0.95;;
31043;SDS011;17710;52.520;13.352;2022-10-16T11:08:06;2.35;;;0.52;;
31043;SDS011;17710;52.520;13.352;2022-10-16T11:10:39;1.30;;;0.60;;
31043;SDS011;17710;52.520;13.352;2022-10-16T11:13:17;2.97;;;0.50;;
31043;SDS011;17710;52.520;13.352;2022-10-16T11:15:58;0.45;;;0.45;;
31043;SDS011;17710;52.520;13.352;2022-10-16T11:18:30;0.85;;;0.40;;
31043;SDS011;17710;52.520;13.352;2022-10-16T11:21:07;0.80;;;0.52;;
31043;SDS011;17710;52.520;13.352;2022-10-16T11:23:40;6.03;;;0.70;;
31043;SDS011;17710;52.520;13.352;2022-10-16T11:26:14;1.58;;;1.08;;
31043;SDS011;17710;52.520;13.352;2022-10-16T11:28:47;0.90;;;0.45;;
31043;SDS011;17710;52.520;13.352;2022-10-16T11:31:17;2.28;;;0.30;;
31043;SDS011;17710;52.520;13.352;2022-10-16T11:33:51;0.90;;;0.32;;
31043;SDS011;17710;52.520;13.352;2022-10-16T11:36:27;3.55;;;0.57;;
31043;SDS011;17710;52.520;13.352;2022-10-16T11:39:02;1.23;;;0.40;;
31043;SDS011;17710;52.520;13.352;2022-10-16T11:41:42;3.00;;;0.52;;
31043;SDS011;17710;52.520;13.352;2022-10-16T11:44:16;4.65;;;1.17;;
31043;SDS011;17710;52.520;13.352;2022-10-16T11:47:03;0.40;;;0.32;;
31043;SDS011;17710;52.520;13.352;2022-10-16T11:49:38;0.60;;;0.40;;
31043;SDS011;17710;52.520;13.352;2022-10-16T11:52:07;0.30;;;0.30;;
31043;SDS011;17710;52.520;13.352;2022-10-16T11:54:43;0.88;;;0.55;;
31043;SDS011;17710;52.520;13.352;2022-10-16T11:57:14;0.73;;;0.40;;
31043;SDS011;17710;52.520;13.352;2022-10-16T11:59:46;0.90;;;0.32;;
31043;SDS011;17710;52.520;13.352;2022-10-16T12:02:25;1.25;;;0.60;;
31043;SDS011;17710;52.520;13.352;2022-10-16T12:05:02;2.28;;;0.52;;
31043;SDS011;17710;52.520;13.352;2022-10-16T12:07:38;1.77;;;0.70;;
31043;SDS011;17710;52.520;13.352;2022-10-16T12:10:18;3.40;;;0.50;;
31043;SDS011;17710;52.520;13.352;2022-10-16T12:12:48;0.52;;;0.40;;
31043;SDS011;17710;52.520;13.352;2022-10-16T12:15:19;1.27;;;0.32;;
31043;SDS011;17710;52.520;13.352;2022-10-16T12:17:48;2.45;;;0.40;;
31043;SDS011;17710;52.520;13.352;2022-10-16T12:20:20;2.08;;;0.60;;
31043;SDS011;17710;52.520;13.352;2022-10-16T12:22:51;1.17;;;0.40;;
31043;SDS011;17710;52.520;13.352;2022-10-16T12:25:23;1.85;;;0.50;;
31043;SDS011;17710;52.520;13.352;2022-10-16T12:27:57;2.83;;;0.38;;
31043;SDS011;17710;52.520;13.352;2022-10-16T12:30:28;2.42;;;0.40;;
31043;SDS011;17710;52.520;13.352;2022-10-16T12:32:56;5.50;;;0.40;;
31043;SDS011;17710;52.520;13.352;2022-10-16T12:35:25;1.88;;;0.35;;
31043;SDS011;17710;52.520;13.352;2022-10-16T12:37:53;0.85;;;0.30;;
31043;SDS011;17710;52.520;13.352;2022-10-16T12:40:25;3.53;;;0.35;;
31043;SDS011;17710;52.520;13.352;2022-10-16T12:42:54;1.95;;;0.35;;
31043;SDS011;17710;52.520;13.352;2022-10-16T12:45:24;4.47;;;0.45;;
31043;SDS011;17710;52.520;13.352;2022-10-16T12:47:54;2.20;;;0.40;;
31043;SDS011;17710;52.520;13.352;2022-10-16T12:50:23;0.77;;;0.30;;
31043;SDS011;17710;52.520;13.352;2022-10-16T12:52:52;1.15;;;0.30;;
31043;SDS011;17710;52.520;13.352;2022-10-16T12:55:19;0.93;;;0.50;;
31043;SDS011;17710;52.520;13.352;2022-10-16T12:57:55;0.90;;;0.22;;
31043;SDS011;17710;52.520;13.352;2022-10-16T13:00:32;4.55;;;0.40;;
31043;SDS011;17710;52.520;13.352;2022-10-16T13:03:25;0.40;;;0.25;;
31043;SDS011;17710;52.520;13.352;2022-10-16T13:06:11;0.32;;;0.20;;
31043;SDS011;17710;52.520;13.352;2022-10-16T13:08:52;3.47;;;0.75;;
31043;SDS011;17710;52.520;13.352;2022-10-16T13:11:44;0.52;;;0.22;;
31043;SDS011;17710;52.520;13.352;2022-10-16T13:14:30;0.50;;;0.30;;
31043;SDS011;17710;52.520;13.352;2022-10-16T13:17:13;2.60;;;0.50;;
31043;SDS011;17710;52.520;13.352;2022-10-16T13:19:50;3.58;;;0.60;;
31043;SDS011;17710;52.520;13.352;2022-10-16T13:22:27;1.50;;;0.30;;
31043;SDS011;17710;52.520;13.352;2022-10-16T13:25:02;7.47;;;0.68;;
31043;SDS011;17710;52.520;13.352;2022-10-16T13:27:40;0.38;;;0.30;;
31043;SDS011;17710;52.520;13.352;2022-10-16T13:32:44;1.35;;;0.50;;
31043;SDS011;17710;52.520;13.352;2022-10-16T13:35:20;1.17;;;0.35;;
31043;SDS011;17710;52.520;13.352;2022-10-16T13:37:48;4.57;;;0.30;;
31043;SDS011;17710;52.520;13.352;2022-10-16T13:40:18;0.20;;;0.20;;
31043;SDS011;17710;52.520;13.352;2022-10-16T13:42:46;0.82;;;0.20;;
31043;SDS011;17710;52.520;13.352;2022-10-16T13:45:17;3.85;;;0.20;;
31043;SDS011;17710;52.520;13.352;2022-10-16T13:47:45;3.30;;;0.38;;
31043;SDS011;17710;52.520;13.352;2022-10-16T13:50:12;1.02;;;0.20;;
31043;SDS011;17710;52.520;13.352;2022-10-16T13:52:42;1.70;;;0.30;;
31043;SDS011;17710;52.520;13.352;2022-10-16T13:55:12;0.30;;;0.20;;
31043;SDS011;17710;52.520;13.352;2022-10-16T13:57:39;2.90;;;0.40;;
31043;SDS011;17710;52.520;13.352;2022-10-16T14:00:17;0.65;;;0.30;;
31043;SDS011;17710;52.520;13.352;2022-10-16T14:02:44;0.82;;;0.30;;
31043;SDS011;17710;52.520;13.352;2022-10-16T14:05:17;3.78;;;0.50;;
31043;SDS011;17710;52.520;13.352;2022-10-16T14:07:47;2.55;;;0.30;;
31043;SDS011;17710;52.520;13.352;2022-10-16T14:10:20;0.40;;;0.30;;
31043;SDS011;17710;52.520;13.352;2022-10-16T14:12:56;1.13;;;0.35;;
31043;SDS011;17710;52.520;13.352;2022-10-16T14:15:24;1.10;;;0.30;;
31043;SDS011;17710;52.520;13.352;2022-10-16T14:17:54;1.50;;;0.63;;
31043;SDS011;17710;52.520;13.352;2022-10-16T14:20:22;0.82;;;0.30;;
31043;SDS011;17710;52.520;13.352;2022-10-16T14:22:59;1.50;;;0.50;;
31043;SDS011;17710;52.520;13.352;2022-10-16T14:25:28;0.60;;;0.40;;
31043;SDS011;17710;52.520;13.352;2022-10-16T14:27:57;2.05;;;0.57;;
31043;SDS011;17710;52.520;13.352;2022-10-16T14:30:25;0.95;;;0.40;;
31043;SDS011;17710;52.520;13.352;2022-10-16T14:32:54;1.88;;;0.40;;
31043;SDS011;17710;52.520;13.352;2022-10-16T14:35:26;3.13;;;0.63;;
31043;SDS011;17710;52.520;13.352;2022-10-16T14:37:56;0.80;;;0.40;;
31043;SDS011;17710;52.520;13.352;2022-10-16T14:40:26;0.60;;;0.30;;
31043;SDS011;17710;52.520;13.352;2022-10-16T14:42:55;4.18;;;0.30;;
31043;SDS011;17710;52.520;13.352;2022-10-16T14:45:23;1.48;;;0.40;;
31043;SDS011;17710;52.520;13.352;2022-10-16T14:47:54;0.70;;;0.50;;
31043;SDS011;17710;52.520;13.352;2022-10-16T14:50:23;1.30;;;0.32;;
31043;SDS011;17710;52.520;13.352;2022-10-16T14:52:50;0.40;;;0.40;;
31043;SDS011;17710;52.520;13.352;2022-10-16T14:55:17;2.33;;;0.70;;
31043;SDS011;17710;52.520;13.352;2022-10-16T14:57:46;1.13;;;0.52;;